sensor_id;sensor_type;location;lat;lon;timestamp;temperature;humidity
16823;DHT22;8528;49.976;11.858;2023-07-24T00:01:52;15.50;99.90
16823;DHT22;8528;49.976;11.858;2023-07-24T00:04:20;15.40;99.90
16823;DHT22;8528;49.976;11.858;2023-07-24T00:06:47;15.40;99.90
16823;DHT22;8528;49.976;11.858;2023-07-24T00:09:14;15.30;99.90
16823;DHT22;8528;49.976;11.858;2023-07-24T00:11:41;15.30;99.90
16823;DHT22;8528;49.976;11.858;2023-07-24T00:14:07;15.20;99.90
16823;DHT22;8528;49.976;11.858;2023-07-24T00:16:34;15.20;99.90
16823;DHT22;8528;49.976;11.858;2023-07-24T00:19:01;15.20;99.90
16823;DHT22;8528;49.976;11.858;2023-07-24T00:21:28;15.10;99.90
16823;DHT22;8528;49.976;11.858;2023-07-24T00:23:55;15.10;99.90
16823;DHT22;8528;49.976;11.858;2023-07-24T00:26:22;15.00;99.90
16823;DHT22;8528;49.976;11.858;2023-07-24T00:28:49;15.00;99.90
16823;DHT22;8528;49.976;11.858;2023-07-24T00:31:15;14.90;99.90
16823;DHT22;8528;49.976;11.858;2023-07-24T00:33:42;14.90;99.90
16823;DHT22;8528;49.976;11.858;2023-07-24T00:36:09;14.80;99.90
16823;DHT22;8528;49.976;11.858;2023-07-24T00:38:36;14.80;99.90
16823;DHT22;8528;49.976;11.858;2023-07-24T00:41:03;14.70;99.90
16823;DHT22;8528;49.976;11.858;2023-07-24T00:43:30;14.70;99.90
16823;DHT22;8528;49.976;11.858;2023-07-24T00:45:57;14.70;99.90
16823;DHT22;8528;49.976;11.858;2023-07-24T00:48:24;14.70;99.90
16823;DHT22;8528;49.976;11.858;2023-07-24T00:50:51;14.70;99.90
16823;DHT22;8528;49.976;11.858;2023-07-24T00:53:19;14.80;99.90
16823;DHT22;8528;49.976;11.858;2023-07-24T00:55:47;14.90;99.90
16823;DHT22;8528;49.976;11.858;2023-07-24T00:58:16;14.90;99.90
16823;DHT22;8528;49.976;11.858;2023-07-24T01:00:43;15.00;99.90
16823;DHT22;8528;49.976;11.858;2023-07-24T01:03:11;15.10;99.90
16823;DHT22;8528;49.976;11.858;2023-07-24T01:05:39;15.00;99.90
16823;DHT22;8528;49.976;11.858;2023-07-24T01:08:07;15.00;99.90
16823;DHT22;8528;49.976;11.858;2023-07-24T01:10:34;14.90;99.90
16823;DHT22;8528;49.976;11.858;2023-07-24T01:13:13;14.80;99.90
16823;DHT22;8528;49.976;11.858;2023-07-24T01:15:50;15.00;99.90
16823;DHT22;8528;49.976;11.858;2023-07-24T01:18:21;15.20;99.90
16823;DHT22;8528;49.976;11.858;2023-07-24T01:20:52;15.30;99.90
16823;DHT22;8528;49.976;11.858;2023-07-24T01:26:00;15.40;99.90
16823;DHT22;8528;49.976;11.858;2023-07-24T01:28:27;15.30;99.90
16823;DHT22;8528;49.976;11.858;2023-07-24T01:30:55;15.20;99.90
16823;DHT22;8528;49.976;11.858;2023-07-24T01:33:23;15.10;99.90
16823;DHT22;8528;49.976;11.858;2023-07-24T01:35:57;15.10;99.90
16823;DHT22;8528;49.976;11.858;2023-07-24T01:38:24;15.10;99.90
16823;DHT22;8528;49.976;11.858;2023-07-24T01:40:54;15.30;99.90
16823;DHT22;8528;49.976;11.858;2023-07-24T01:43:22;15.80;99.90
16823;DHT22;8528;49.976;11.858;2023-07-24T01:45:49;16.10;99.90
16823;DHT22;8528;49.976;11.858;2023-07-24T01:48:15;16.40;99.90
16823;DHT22;8528;49.976;11.858;2023-07-24T01:50:42;16.60;99.90
16823;DHT22;8528;49.976;11.858;2023-07-24T01:53:09;16.70;99.90
16823;DHT22;8528;49.976;11.858;2023-07-24T01:55:36;16.70;99.90
16823;DHT22;8528;49.976;11.858;2023-07-24T01:58:03;16.80;99.90
16823;DHT22;8528;49.976;11.858;2023-07-24T02:00:30;16.80;99.90
16823;DHT22;8528;49.976;11.858;2023-07-24T02:02:56;16.90;99.90
16823;DHT22;8528;49.976;11.858;2023-07-24T02:05:23;16.80;99.90
16823;DHT22;8528;49.976;11.858;2023-07-24T02:07:50;16.80;99.90
16823;DHT22;8528;49.976;11.858;2023-07-24T02:10:17;16.80;99.90
16823;DHT22;8528;49.976;11.858;2023-07-24T02:12:45;16.70;99.90
16823;DHT22;8528;49.976;11.858;2023-07-24T02:15:11;16.60;99.90
16823;DHT22;8528;49.976;11.858;2023-07-24T02:17:38;16.50;99.90
16823;DHT22;8528;49.976;11.858;2023-07-24T02:20:06;16.40;99.90
16823;DHT22;8528;49.976;11.858;2023-07-24T02:22:32;16.20;99.90
16823;DHT22;8528;49.976;11.858;2023-07-24T02:24:59;16.00;99.90
16823;DHT22;8528;49.976;11.858;2023-07-24T02:27:28;15.90;99.90
16823;DHT22;8528;49.976;11.858;2023-07-24T02:29:55;15.80;99.90
16823;DHT22;8528;49.976;11.858;2023-07-24T02:32:22;15.70;99.90
16823;DHT22;8528;49.976;11.858;2023-07-24T02:34:50;15.60;99.90
16823;DHT22;8528;49.976;11.858;2023-07-24T02:37:17;15.60;99.90
16823;DHT22;8528;49.976;11.858;2023-07-24T02:39:44;15.50;99.90
16823;DHT22;8528;49.976;11.858;2023-07-24T02:42:11;15.40;99.90
16823;DHT22;8528;49.976;11.858;2023-07-24T02:44:38;15.30;99.90
16823;DHT22;8528;49.976;11.858;2023-07-24T02:47:05;15.30;99.90
16823;DHT22;8528;49.976;11.858;2023-07-24T02:49:33;15.20;99.90
16823;DHT22;8528;49.976;11.858;2023-07-24T02:52:00;15.10;99.90
16823;DHT22;8528;49.976;11.858;2023-07-24T02:54:27;15.00;99.90
16823;DHT22;8528;49.976;11.858;2023-07-24T02:56:54;14.90;99.90
16823;DHT22;8528;49.976;11.858;2023-07-24T02:59:20;14.80;99.90
16823;DHT22;8528;49.976;11.858;2023-07-24T03:01:47;14.70;99.90
16823;DHT22;8528;49.976;11.858;2023-07-24T03:04:14;14.60;99.90
16823;DHT22;8528;49.976;11.858;2023-07-24T03:06:41;14.50;99.90
16823;DHT22;8528;49.976;11.858;2023-07-24T03:09:07;14.50;99.90
16823;DHT22;8528;49.976;11.858;2023-07-24T03:11:34;14.30;99.90
16823;DHT22;8528;49.976;11.858;2023-07-24T03:14:01;14.20;99.90
16823;DHT22;8528;49.976;11.858;2023-07-24T03:16:28;14.10;99.90
16823;DHT22;8528;49.976;11.858;2023-07-24T03:18:55;14.10;99.90
16823;DHT22;8528;49.976;11.858;2023-07-24T03:21:22;14.10;99.90
16823;DHT22;8528;49.976;11.858;2023-07-24T03:23:48;14.10;99.90
16823;DHT22;8528;49.976;11.858;2023-07-24T03:26:15;14.10;99.90
16823;DHT22;8528;49.976;11.858;2023-07-24T03:28:42;14.00;99.90
16823;DHT22;8528;49.976;11.858;2023-07-24T03:31:09;13.90;99.90
16823;DHT22;8528;49.976;11.858;2023-07-24T03:33:36;13.90;99.90
16823;DHT22;8528;49.976;11.858;2023-07-24T03:36:03;13.90;99.90
16823;DHT22;8528;49.976;11.858;2023-07-24T03:38:30;13.80;99.90
16823;DHT22;8528;49.976;11.858;2023-07-24T03:40:57;13.90;99.90
16823;DHT22;8528;49.976;11.858;2023-07-24T03:43:23;13.90;99.90
16823;DHT22;8528;49.976;11.858;2023-07-24T03:45:51;13.90;99.90
16823;DHT22;8528;49.976;11.858;2023-07-24T03:48:18;13.90;99.90
16823;DHT22;8528;49.976;11.858;2023-07-24T03:50:44;13.90;99.90
16823;DHT22;8528;49.976;11.858;2023-07-24T03:53:11;13.90;99.90
16823;DHT22;8528;49.976;11.858;2023-07-24T03:55:38;14.00;99.90
16823;DHT22;8528;49.976;11.858;2023-07-24T03:58:05;14.00;99.90
16823;DHT22;8528;49.976;11.858;2023-07-24T04:00:32;14.00;99.90
16823;DHT22;8528;49.976;11.858;2023-07-24T04:02:59;13.90;99.90
16823;DHT22;8528;49.976;11.858;2023-07-24T04:05:25;13.90;99.90
16823;DHT22;8528;49.976;11.858;2023-07-24T04:07:54;13.80;99.90
16823;DHT22;8528;49.976;11.858;2023-07-24T04:10:21;13.80;99.90
16823;DHT22;8528;49.976;11.858;2023-07-24T04:12:48;13.80;99.90
16823;DHT22;8528;49.976;11.858;2023-07-24T04:15:15;13.90;99.90
16823;DHT22;8528;49.976;11.858;2023-07-24T04:17:42;14.00;99.90
16823;DHT22;8528;49.976;11.858;2023-07-24T04:20:09;14.10;99.90
16823;DHT22;8528;49.976;11.858;2023-07-24T04:22:36;14.30;99.90
16823;DHT22;8528;49.976;11.858;2023-07-24T04:25:03;14.30;99.90
16823;DHT22;8528;49.976;11.858;2023-07-24T04:27:30;14.30;99.90
16823;DHT22;8528;49.976;11.858;2023-07-24T04:29:57;14.20;99.90
16823;DHT22;8528;49.976;11.858;2023-07-24T04:32:26;14.20;99.90
16823;DHT22;8528;49.976;11.858;2023-07-24T04:34:53;14.20;99.90
16823;DHT22;8528;49.976;11.858;2023-07-24T04:37:22;14.20;99.90
16823;DHT22;8528;49.976;11.858;2023-07-24T04:39:49;14.20;99.90
16823;DHT22;8528;49.976;11.858;2023-07-24T04:42:15;14.20;99.90
16823;DHT22;8528;49.976;11.858;2023-07-24T04:44:42;14.20;99.90
16823;DHT22;8528;49.976;11.858;2023-07-24T04:47:09;14.20;99.90
16823;DHT22;8528;49.976;11.858;2023-07-24T04:49:36;14.20;99.90
16823;DHT22;8528;49.976;11.858;2023-07-24T04:52:03;14.30;99.90
16823;DHT22;8528;49.976;11.858;2023-07-24T04:54:30;14.40;99.90
16823;DHT22;8528;49.976;11.858;2023-07-24T04:56:57;14.60;99.90
16823;DHT22;8528;49.976;11.858;2023-07-24T04:59:24;14.70;99.90
16823;DHT22;8528;49.976;11.858;2023-07-24T05:01:51;14.80;99.90
16823;DHT22;8528;49.976;11.858;2023-07-24T05:04:17;14.90;99.90
16823;DHT22;8528;49.976;11.858;2023-07-24T05:06:44;15.00;99.90
16823;DHT22;8528;49.976;11.858;2023-07-24T05:09:11;15.00;99.90
16823;DHT22;8528;49.976;11.858;2023-07-24T05:11:38;15.10;99.90
16823;DHT22;8528;49.976;11.858;2023-07-24T05:14:05;15.20;99.90
16823;DHT22;8528;49.976;11.858;2023-07-24T05:16:31;15.30;99.90
16823;DHT22;8528;49.976;11.858;2023-07-24T05:18:59;15.40;99.90
16823;DHT22;8528;49.976;11.858;2023-07-24T05:21:26;15.40;99.90
16823;DHT22;8528;49.976;11.858;2023-07-24T05:23:52;15.40;99.90
16823;DHT22;8528;49.976;11.858;2023-07-24T05:26:19;15.50;99.90
16823;DHT22;8528;49.976;11.858;2023-07-24T05:28:48;15.60;99.90
16823;DHT22;8528;49.976;11.858;2023-07-24T05:31:15;15.70;99.90
16823;DHT22;8528;49.976;11.858;2023-07-24T05:33:42;16.00;99.90
16823;DHT22;8528;49.976;11.858;2023-07-24T05:36:09;16.10;99.90
16823;DHT22;8528;49.976;11.858;2023-07-24T05:38:35;16.20;99.90
16823;DHT22;8528;49.976;11.858;2023-07-24T05:41:03;16.30;99.90
16823;DHT22;8528;49.976;11.858;2023-07-24T05:43:30;16.20;99.90
16823;DHT22;8528;49.976;11.858;2023-07-24T05:45:58;16.10;99.90
16823;DHT22;8528;49.976;11.858;2023-07-24T05:48:25;15.90;99.90
16823;DHT22;8528;49.976;11.858;2023-07-24T05:50:52;15.70;99.90
16823;DHT22;8528;49.976;11.858;2023-07-24T05:53:19;15.60;99.90
16823;DHT22;8528;49.976;11.858;2023-07-24T05:55:46;15.50;99.90
16823;DHT22;8528;49.976;11.858;2023-07-24T05:58:14;15.50;99.90
16823;DHT22;8528;49.976;11.858;2023-07-24T06:00:41;15.50;99.90
16823;DHT22;8528;49.976;11.858;2023-07-24T06:03:08;15.40;99.90
16823;DHT22;8528;49.976;11.858;2023-07-24T06:05:35;15.40;99.90
16823;DHT22;8528;49.976;11.858;2023-07-24T06:08:02;15.40;99.90
16823;DHT22;8528;49.976;11.858;2023-07-24T06:10:29;15.40;99.90
16823;DHT22;8528;49.976;11.858;2023-07-24T06:12:55;15.50;99.90
16823;DHT22;8528;49.976;11.858;2023-07-24T06:15:22;15.50;99.90
16823;DHT22;8528;49.976;11.858;2023-07-24T06:17:49;15.60;99.90
16823;DHT22;8528;49.976;11.858;2023-07-24T06:20:20;15.70;99.90
16823;DHT22;8528;49.976;11.858;2023-07-24T06:22:47;16.00;99.90
16823;DHT22;8528;49.976;11.858;2023-07-24T06:25:14;16.40;99.90
16823;DHT22;8528;49.976;11.858;2023-07-24T06:27:41;17.00;99.90
16823;DHT22;8528;49.976;11.858;2023-07-24T06:30:07;17.50;99.90
16823;DHT22;8528;49.976;11.858;2023-07-24T06:32:42;17.90;99.90
16823;DHT22;8528;49.976;11.858;2023-07-24T06:35:09;18.10;99.90
16823;DHT22;8528;49.976;11.858;2023-07-24T06:37:36;18.00;99.90
16823;DHT22;8528;49.976;11.858;2023-07-24T06:40:03;17.90;99.90
16823;DHT22;8528;49.976;11.858;2023-07-24T06:42:46;17.70;99.90
16823;DHT22;8528;49.976;11.858;2023-07-24T06:45:13;17.60;99.90
16823;DHT22;8528;49.976;11.858;2023-07-24T06:47:40;17.50;99.90
16823;DHT22;8528;49.976;11.858;2023-07-24T06:50:07;17.40;99.90
16823;DHT22;8528;49.976;11.858;2023-07-24T06:52:34;17.50;99.90
16823;DHT22;8528;49.976;11.858;2023-07-24T06:55:01;17.40;99.90
16823;DHT22;8528;49.976;11.858;2023-07-24T06:57:28;17.80;99.90
16823;DHT22;8528;49.976;11.858;2023-07-24T06:59:55;18.20;99.90
16823;DHT22;8528;49.976;11.858;2023-07-24T07:02:22;18.50;99.90
16823;DHT22;8528;49.976;11.858;2023-07-24T07:04:49;18.90;99.90
16823;DHT22;8528;49.976;11.858;2023-07-24T07:07:16;19.10;99.90
16823;DHT22;8528;49.976;11.858;2023-07-24T07:09:43;19.80;99.90
16823;DHT22;8528;49.976;11.858;2023-07-24T07:12:10;20.90;99.90
16823;DHT22;8528;49.976;11.858;2023-07-24T07:14:37;22.10;99.90
16823;DHT22;8528;49.976;11.858;2023-07-24T07:17:39;23.20;99.90
16823;DHT22;8528;49.976;11.858;2023-07-24T07:20:06;23.90;99.90
16823;DHT22;8528;49.976;11.858;2023-07-24T07:22:33;24.80;99.90
16823;DHT22;8528;49.976;11.858;2023-07-24T07:25:00;25.40;99.90
16823;DHT22;8528;49.976;11.858;2023-07-24T07:27:27;25.40;99.90
16823;DHT22;8528;49.976;11.858;2023-07-24T07:29:53;26.10;99.90
16823;DHT22;8528;49.976;11.858;2023-07-24T07:32:20;27.70;99.90
16823;DHT22;8528;49.976;11.858;2023-07-24T07:34:47;28.40;99.90
16823;DHT22;8528;49.976;11.858;2023-07-24T07:37:14;28.90;98.90
16823;DHT22;8528;49.976;11.858;2023-07-24T07:39:41;30.20;95.50
16823;DHT22;8528;49.976;11.858;2023-07-24T07:42:08;31.00;92.10
16823;DHT22;8528;49.976;11.858;2023-07-24T07:44:43;31.00;90.80
16823;DHT22;8528;49.976;11.858;2023-07-24T07:47:10;30.40;90.10
16823;DHT22;8528;49.976;11.858;2023-07-24T07:49:37;29.90;82.30
16823;DHT22;8528;49.976;11.858;2023-07-24T07:52:04;29.50;80.40
16823;DHT22;8528;49.976;11.858;2023-07-24T07:54:31;28.90;82.50
16823;DHT22;8528;49.976;11.858;2023-07-24T07:56:58;27.80;84.50
16823;DHT22;8528;49.976;11.858;2023-07-24T07:59:25;26.90;86.70
16823;DHT22;8528;49.976;11.858;2023-07-24T08:01:52;25.90;89.50
16823;DHT22;8528;49.976;11.858;2023-07-24T08:04:19;25.40;90.60
16823;DHT22;8528;49.976;11.858;2023-07-24T08:06:46;24.80;92.30
16823;DHT22;8528;49.976;11.858;2023-07-24T08:09:13;24.30;94.10
16823;DHT22;8528;49.976;11.858;2023-07-24T08:11:40;24.10;95.00
16823;DHT22;8528;49.976;11.858;2023-07-24T08:14:07;23.50;95.70
16823;DHT22;8528;49.976;11.858;2023-07-24T08:16:34;23.10;97.80
16823;DHT22;8528;49.976;11.858;2023-07-24T08:19:01;22.90;99.80
16823;DHT22;8528;49.976;11.858;2023-07-24T08:21:28;22.40;99.90
16823;DHT22;8528;49.976;11.858;2023-07-24T08:23:55;21.70;99.90
16823;DHT22;8528;49.976;11.858;2023-07-24T08:26:23;21.10;99.90
16823;DHT22;8528;49.976;11.858;2023-07-24T08:28:54;20.60;99.90
16823;DHT22;8528;49.976;11.858;2023-07-24T08:31:21;20.30;99.90
16823;DHT22;8528;49.976;11.858;2023-07-24T08:33:48;20.10;99.90
16823;DHT22;8528;49.976;11.858;2023-07-24T08:36:15;20.10;99.90
16823;DHT22;8528;49.976;11.858;2023-07-24T08:38:42;20.20;99.90
16823;DHT22;8528;49.976;11.858;2023-07-24T08:41:11;20.40;99.90
16823;DHT22;8528;49.976;11.858;2023-07-24T08:43:42;20.40;99.90
16823;DHT22;8528;49.976;11.858;2023-07-24T08:46:10;20.50;99.90
16823;DHT22;8528;49.976;11.858;2023-07-24T08:48:41;20.80;99.90
16823;DHT22;8528;49.976;11.858;2023-07-24T08:51:11;21.00;99.90
16823;DHT22;8528;49.976;11.858;2023-07-24T08:53:40;20.80;99.90
16823;DHT22;8528;49.976;11.858;2023-07-24T08:56:11;20.60;99.90
16823;DHT22;8528;49.976;11.858;2023-07-24T08:58:42;20.30;99.90
16823;DHT22;8528;49.976;11.858;2023-07-24T09:01:09;20.20;99.90
16823;DHT22;8528;49.976;11.858;2023-07-24T09:03:36;20.40;99.90
16823;DHT22;8528;49.976;11.858;2023-07-24T09:06:04;20.60;99.90
16823;DHT22;8528;49.976;11.858;2023-07-24T09:08:37;20.80;99.90
16823;DHT22;8528;49.976;11.858;2023-07-24T09:11:05;21.00;99.90
16823;DHT22;8528;49.976;11.858;2023-07-24T09:13:35;21.10;99.90
16823;DHT22;8528;49.976;11.858;2023-07-24T09:16:02;21.20;99.90
16823;DHT22;8528;49.976;11.858;2023-07-24T09:18:42;21.00;99.90
16823;DHT22;8528;49.976;11.858;2023-07-24T09:21:10;20.60;99.90
16823;DHT22;8528;49.976;11.858;2023-07-24T09:23:40;20.00;99.90
16823;DHT22;8528;49.976;11.858;2023-07-24T09:26:10;19.50;99.90
16823;DHT22;8528;49.976;11.858;2023-07-24T09:28:37;19.10;99.90
16823;DHT22;8528;49.976;11.858;2023-07-24T09:31:04;18.80;99.90
16823;DHT22;8528;49.976;11.858;2023-07-24T09:36:03;18.90;99.90
16823;DHT22;8528;49.976;11.858;2023-07-24T09:38:31;19.20;99.90
16823;DHT22;8528;49.976;11.858;2023-07-24T09:41:01;19.50;99.90
16823;DHT22;8528;49.976;11.858;2023-07-24T09:43:29;19.60;99.90
16823;DHT22;8528;49.976;11.858;2023-07-24T09:46:07;19.60;99.90
16823;DHT22;8528;49.976;11.858;2023-07-24T09:48:36;20.20;99.90
16823;DHT22;8528;49.976;11.858;2023-07-24T09:51:11;21.60;99.90
16823;DHT22;8528;49.976;11.858;2023-07-24T09:53:43;22.90;99.90
16823;DHT22;8528;49.976;11.858;2023-07-24T09:56:10;24.30;99.90
16823;DHT22;8528;49.976;11.858;2023-07-24T09:58:38;25.70;99.90
16823;DHT22;8528;49.976;11.858;2023-07-24T10:01:07;26.40;99.90
16823;DHT22;8528;49.976;11.858;2023-07-24T10:03:38;27.50;99.90
16823;DHT22;8528;49.976;11.858;2023-07-24T10:06:09;28.40;99.90
16823;DHT22;8528;49.976;11.858;2023-07-24T10:08:38;29.40;96.10
16823;DHT22;8528;49.976;11.858;2023-07-24T10:11:07;30.40;91.90
16823;DHT22;8528;49.976;11.858;2023-07-24T10:13:35;30.90;87.00
16823;DHT22;8528;49.976;11.858;2023-07-24T10:16:03;31.90;82.60
16823;DHT22;8528;49.976;11.858;2023-07-24T10:18:35;32.20;75.70
16823;DHT22;8528;49.976;11.858;2023-07-24T10:21:09;31.70;75.70
16823;DHT22;8528;49.976;11.858;2023-07-24T10:23:40;29.90;80.40
16823;DHT22;8528;49.976;11.858;2023-07-24T10:26:08;28.50;86.30
16823;DHT22;8528;49.976;11.858;2023-07-24T10:28:39;27.70;88.90
16823;DHT22;8528;49.976;11.858;2023-07-24T10:31:21;26.80;91.30
16823;DHT22;8528;49.976;11.858;2023-07-24T10:33:48;25.70;93.70
16823;DHT22;8528;49.976;11.858;2023-07-24T10:36:47;24.80;95.40
16823;DHT22;8528;49.976;11.858;2023-07-24T10:39:15;23.90;98.20
16823;DHT22;8528;49.976;11.858;2023-07-24T10:41:43;23.40;99.90
16823;DHT22;8528;49.976;11.858;2023-07-24T10:44:11;23.10;99.90
16823;DHT22;8528;49.976;11.858;2023-07-24T10:46:40;22.80;99.90
16823;DHT22;8528;49.976;11.858;2023-07-24T10:49:08;22.70;99.90
16823;DHT22;8528;49.976;11.858;2023-07-24T10:51:35;23.10;99.90
16823;DHT22;8528;49.976;11.858;2023-07-24T10:54:04;23.80;99.90
16823;DHT22;8528;49.976;11.858;2023-07-24T10:56:36;24.40;99.90
16823;DHT22;8528;49.976;11.858;2023-07-24T10:59:04;24.40;99.90
16823;DHT22;8528;49.976;11.858;2023-07-24T11:01:32;24.10;99.90
16823;DHT22;8528;49.976;11.858;2023-07-24T11:04:01;23.60;99.90
16823;DHT22;8528;49.976;11.858;2023-07-24T11:06:28;23.00;99.90
16823;DHT22;8528;49.976;11.858;2023-07-24T11:08:57;22.50;99.90
16823;DHT22;8528;49.976;11.858;2023-07-24T11:11:34;22.20;99.90
16823;DHT22;8528;49.976;11.858;2023-07-24T11:14:03;22.10;99.90
16823;DHT22;8528;49.976;11.858;2023-07-24T11:16:30;21.90;99.90
16823;DHT22;8528;49.976;11.858;2023-07-24T11:18:59;21.90;99.90
16823;DHT22;8528;49.976;11.858;2023-07-24T11:21:25;22.00;99.90
16823;DHT22;8528;49.976;11.858;2023-07-24T11:23:55;22.20;99.90
16823;DHT22;8528;49.976;11.858;2023-07-24T11:26:24;22.50;99.90
16823;DHT22;8528;49.976;11.858;2023-07-24T11:28:52;22.80;99.90
16823;DHT22;8528;49.976;11.858;2023-07-24T11:31:19;23.20;99.90
16823;DHT22;8528;49.976;11.858;2023-07-24T11:33:49;24.10;99.90
16823;DHT22;8528;49.976;11.858;2023-07-24T11:36:16;25.20;99.90
16823;DHT22;8528;49.976;11.858;2023-07-24T11:38:46;26.00;99.90
16823;DHT22;8528;49.976;11.858;2023-07-24T11:41:15;26.60;99.90
16823;DHT22;8528;49.976;11.858;2023-07-24T11:43:47;26.70;99.90
16823;DHT22;8528;49.976;11.858;2023-07-24T11:46:24;26.50;99.90
16823;DHT22;8528;49.976;11.858;2023-07-24T11:48:52;27.00;99.90
16823;DHT22;8528;49.976;11.858;2023-07-24T11:51:20;26.80;99.90
16823;DHT22;8528;49.976;11.858;2023-07-24T11:53:47;26.50;99.90
16823;DHT22;8528;49.976;11.858;2023-07-24T11:56:16;26.40;99.90
16823;DHT22;8528;49.976;11.858;2023-07-24T11:58:44;26.20;99.90
16823;DHT22;8528;49.976;11.858;2023-07-24T12:01:12;26.10;99.90
16823;DHT22;8528;49.976;11.858;2023-07-24T12:03:40;25.90;99.90
16823;DHT22;8528;49.976;11.858;2023-07-24T12:06:15;26.00;99.90
16823;DHT22;8528;49.976;11.858;2023-07-24T12:08:44;26.20;99.90
16823;DHT22;8528;49.976;11.858;2023-07-24T12:11:17;26.40;99.90
16823;DHT22;8528;49.976;11.858;2023-07-24T12:13:47;26.20;99.40
16823;DHT22;8528;49.976;11.858;2023-07-24T12:16:17;25.60;99.90
16823;DHT22;8528;49.976;11.858;2023-07-24T12:18:44;25.20;99.90
16823;DHT22;8528;49.976;11.858;2023-07-24T12:21:11;24.60;99.90
16823;DHT22;8528;49.976;11.858;2023-07-24T12:23:38;24.00;99.90
16823;DHT22;8528;49.976;11.858;2023-07-24T12:26:05;23.90;99.90
16823;DHT22;8528;49.976;11.858;2023-07-24T12:28:32;23.80;99.90
16823;DHT22;8528;49.976;11.858;2023-07-24T12:30:59;23.60;99.90
16823;DHT22;8528;49.976;11.858;2023-07-24T12:33:26;23.50;99.90
16823;DHT22;8528;49.976;11.858;2023-07-24T12:35:52;23.40;99.90
16823;DHT22;8528;49.976;11.858;2023-07-24T12:38:19;23.10;99.90
16823;DHT22;8528;49.976;11.858;2023-07-24T12:40:46;23.10;99.90
16823;DHT22;8528;49.976;11.858;2023-07-24T12:43:15;23.40;99.90
16823;DHT22;8528;49.976;11.858;2023-07-24T12:45:42;23.30;99.90
16823;DHT22;8528;49.976;11.858;2023-07-24T12:48:09;23.40;99.90
16823;DHT22;8528;49.976;11.858;2023-07-24T12:50:36;23.40;99.90
16823;DHT22;8528;49.976;11.858;2023-07-24T12:53:03;23.60;99.90
16823;DHT22;8528;49.976;11.858;2023-07-24T12:55:35;23.70;99.90
16823;DHT22;8528;49.976;11.858;2023-07-24T12:58:02;23.90;99.90
16823;DHT22;8528;49.976;11.858;2023-07-24T13:00:29;24.00;99.90
16823;DHT22;8528;49.976;11.858;2023-07-24T13:02:56;24.10;99.90
16823;DHT22;8528;49.976;11.858;2023-07-24T13:05:24;24.30;99.90
16823;DHT22;8528;49.976;11.858;2023-07-24T13:07:50;24.20;99.90
16823;DHT22;8528;49.976;11.858;2023-07-24T13:10:17;24.10;99.90
16823;DHT22;8528;49.976;11.858;2023-07-24T13:12:45;24.20;99.90
16823;DHT22;8528;49.976;11.858;2023-07-24T13:15:12;23.80;99.90
16823;DHT22;8528;49.976;11.858;2023-07-24T13:17:39;23.50;99.90
16823;DHT22;8528;49.976;11.858;2023-07-24T13:20:06;23.30;99.90
16823;DHT22;8528;49.976;11.858;2023-07-24T13:22:33;23.20;99.90
16823;DHT22;8528;49.976;11.858;2023-07-24T13:25:00;23.20;99.90
16823;DHT22;8528;49.976;11.858;2023-07-24T13:27:27;23.10;99.90
16823;DHT22;8528;49.976;11.858;2023-07-24T13:29:54;22.90;99.90
16823;DHT22;8528;49.976;11.858;2023-07-24T13:32:21;22.80;99.90
16823;DHT22;8528;49.976;11.858;2023-07-24T13:34:48;22.60;99.90
16823;DHT22;8528;49.976;11.858;2023-07-24T13:37:15;22.90;99.90
16823;DHT22;8528;49.976;11.858;2023-07-24T13:39:42;23.00;99.90
16823;DHT22;8528;49.976;11.858;2023-07-24T13:42:09;23.40;99.90
16823;DHT22;8528;49.976;11.858;2023-07-24T13:44:36;23.90;99.90
16823;DHT22;8528;49.976;11.858;2023-07-24T13:47:03;24.40;99.90
16823;DHT22;8528;49.976;11.858;2023-07-24T13:49:30;24.60;99.90
16823;DHT22;8528;49.976;11.858;2023-07-24T13:51:56;24.60;99.90
16823;DHT22;8528;49.976;11.858;2023-07-24T13:54:23;24.60;99.90
16823;DHT22;8528;49.976;11.858;2023-07-24T13:56:50;24.60;99.90
16823;DHT22;8528;49.976;11.858;2023-07-24T13:59:17;24.40;99.90
16823;DHT22;8528;49.976;11.858;2023-07-24T14:01:44;24.50;99.90
16823;DHT22;8528;49.976;11.858;2023-07-24T14:04:11;24.60;99.90
16823;DHT22;8528;49.976;11.858;2023-07-24T14:06:39;24.80;99.90
16823;DHT22;8528;49.976;11.858;2023-07-24T14:09:06;24.80;99.90
16823;DHT22;8528;49.976;11.858;2023-07-24T14:11:33;24.80;99.90
16823;DHT22;8528;49.976;11.858;2023-07-24T14:14:00;24.50;99.90
16823;DHT22;8528;49.976;11.858;2023-07-24T14:16:27;24.30;99.90
16823;DHT22;8528;49.976;11.858;2023-07-24T14:18:54;24.10;99.90
16823;DHT22;8528;49.976;11.858;2023-07-24T14:21:21;24.00;99.90
16823;DHT22;8528;49.976;11.858;2023-07-24T14:23:47;23.90;99.90
16823;DHT22;8528;49.976;11.858;2023-07-24T14:26:14;23.60;99.90
16823;DHT22;8528;49.976;11.858;2023-07-24T14:28:41;23.40;99.90
16823;DHT22;8528;49.976;11.858;2023-07-24T14:31:08;23.40;99.90
16823;DHT22;8528;49.976;11.858;2023-07-24T14:33:35;23.30;99.90
16823;DHT22;8528;49.976;11.858;2023-07-24T14:36:01;23.20;99.90
16823;DHT22;8528;49.976;11.858;2023-07-24T14:38:29;23.10;99.90
16823;DHT22;8528;49.976;11.858;2023-07-24T14:40:55;23.10;99.90
16823;DHT22;8528;49.976;11.858;2023-07-24T14:43:22;23.10;99.90
16823;DHT22;8528;49.976;11.858;2023-07-24T14:45:49;23.10;99.90
16823;DHT22;8528;49.976;11.858;2023-07-24T14:48:16;23.00;99.90
16823;DHT22;8528;49.976;11.858;2023-07-24T14:50:43;23.00;99.90
16823;DHT22;8528;49.976;11.858;2023-07-24T14:53:10;23.00;99.90
16823;DHT22;8528;49.976;11.858;2023-07-24T14:55:37;23.10;99.90
16823;DHT22;8528;49.976;11.858;2023-07-24T14:58:04;22.90;99.90
16823;DHT22;8528;49.976;11.858;2023-07-24T15:00:32;23.00;99.90
16823;DHT22;8528;49.976;11.858;2023-07-24T15:02:59;23.30;99.90
16823;DHT22;8528;49.976;11.858;2023-07-24T15:05:27;23.50;99.90
16823;DHT22;8528;49.976;11.858;2023-07-24T15:07:54;23.80;99.80
16823;DHT22;8528;49.976;11.858;2023-07-24T15:10:21;24.00;98.90
16823;DHT22;8528;49.976;11.858;2023-07-24T15:12:48;23.80;98.80
16823;DHT22;8528;49.976;11.858;2023-07-24T15:15:15;23.80;98.80
16823;DHT22;8528;49.976;11.858;2023-07-24T15:17:41;23.60;99.20
16823;DHT22;8528;49.976;11.858;2023-07-24T15:20:08;23.40;99.50
16823;DHT22;8528;49.976;11.858;2023-07-24T15:22:35;23.30;99.40
16823;DHT22;8528;49.976;11.858;2023-07-24T15:25:02;23.40;99.60
16823;DHT22;8528;49.976;11.858;2023-07-24T15:27:31;23.50;99.90
16823;DHT22;8528;49.976;11.858;2023-07-24T15:29:58;23.60;99.10
16823;DHT22;8528;49.976;11.858;2023-07-24T15:32:24;23.50;99.30
16823;DHT22;8528;49.976;11.858;2023-07-24T15:34:51;23.30;99.90
16823;DHT22;8528;49.976;11.858;2023-07-24T15:37:18;23.20;99.70
16823;DHT22;8528;49.976;11.858;2023-07-24T15:39:45;23.10;99.60